createdAt,value
2023-03-24T00:00:29.202Z,99273.50
2023-03-24T00:05:30.999Z,99259.09
2023-03-24T00:10:34.388Z,99264.94
2023-03-24T00:15:36.211Z,99270.78
2023-03-24T00:20:37.573Z,99263.94
2023-03-24T00:25:39.989Z,99256.00
2023-03-24T00:30:41.680Z,99258.25
2023-03-24T00:35:44.731Z,99251.28
2023-03-24T00:40:48.432Z,99242.66
2023-03-24T00:45:49.794Z,99234.00
2023-03-24T00:50:52.027Z,99226.28
2023-03-24T00:55:53.767Z,99205.97
2023-03-24T01:00:57.897Z,99199.97
2023-03-24T01:06:04.018Z,99196.06
2023-03-24T01:11:06.556Z,99183.53
2023-03-24T01:16:08.764Z,99172.88
2023-03-24T01:21:11.966Z,99165.09
2023-03-24T01:26:13.310Z,99162.75
2023-03-24T01:31:14.717Z,99150.78
2023-03-24T01:36:16.216Z,99142.81
2023-03-24T01:41:17.643Z,99138.63
2023-03-24T01:46:20.634Z,99136.97
2023-03-24T01:51:37.304Z,99137.16
2023-03-24T01:56:47.458Z,99132.22
2023-03-24T02:01:49.542Z,99133.06
2023-03-24T02:06:51.188Z,99123.91
2023-03-24T02:11:52.828Z,99118.03
2023-03-24T02:17:15.106Z,99106.59
2023-03-24T02:22:53.514Z,99097.78
2023-03-24T02:28:17.770Z,99101.88
2023-03-24T02:33:58.009Z,99091.16
2023-03-24T02:39:21.540Z,99075.66
2023-03-24T02:44:56.738Z,99066.50
2023-03-24T02:50:18.358Z,99052.13
2023-03-24T02:55:31.405Z,99035.91
2023-03-24T03:00:39.919Z,99045.91
2023-03-24T03:05:59.282Z,99038.38
2023-03-24T03:11:03.659Z,99054.22
2023-03-24T03:16:15.944Z,99060.69
2023-03-24T03:21:20.895Z,99048.91
2023-03-24T03:26:26.683Z,99029.19
2023-03-24T03:31:44.913Z,99019.88
2023-03-24T03:36:53.759Z,99005.19
2023-03-24T03:41:56.670Z,99013.06
2023-03-24T03:46:58.543Z,99008.25
2023-03-24T03:51:59.949Z,99014.94
2023-03-24T03:57:01.739Z,99011.06
2023-03-24T04:02:34.709Z,99011.88
2023-03-24T04:07:41.499Z,99018.94
2023-03-24T04:13:00.551Z,99004.69
2023-03-24T04:18:17.047Z,99005.97
2023-03-24T04:23:44.522Z,99012.69
2023-03-24T04:29:17.795Z,99019.09
2023-03-24T04:34:29.294Z,99024.22
2023-03-24T04:39:38.728Z,99014.41
2023-03-24T04:44:41.638Z,99013.16
2023-03-24T04:49:43.086Z,99007.53
2023-03-24T04:54:44.400Z,99004.41
2023-03-24T04:59:46.103Z,98986.81
2023-03-24T05:04:47.445Z,98984.47
2023-03-24T05:09:48.771Z,98991.31
2023-03-24T05:14:50.222Z,99013.03
2023-03-24T05:19:51.738Z,98995.56
2023-03-24T05:24:53.074Z,99023.16
2023-03-24T05:29:54.433Z,99034.91
2023-03-24T05:34:55.884Z,99031.28
2023-03-24T05:46:12.894Z,99057.09
2023-03-24T05:51:14.257Z,99046.75
2023-03-24T05:56:15.706Z,99044.09
2023-03-24T06:01:18.265Z,99063.25
2023-03-24T06:06:19.746Z,99065.28
2023-03-24T06:11:21.226Z,99067.16
2023-03-24T06:16:23.907Z,99065.63
2023-03-24T06:21:32.475Z,99064.13
2023-03-24T06:26:35.429Z,99068.03
2023-03-24T06:31:37.320Z,99056.28
2023-03-24T06:36:38.790Z,99058.50
2023-03-24T06:41:40.552Z,99066.25
2023-03-24T06:46:42.035Z,99073.00
2023-03-24T06:51:43.602Z,99062.91
2023-03-24T06:56:45.069Z,99065.84
2023-03-24T07:01:49.408Z,99057.88
2023-03-24T07:07:08.590Z,99072.06
2023-03-24T07:12:14.413Z,99074.31
2023-03-24T07:17:16.258Z,99077.13
2023-03-24T07:22:17.697Z,99092.09
2023-03-24T07:27:19.030Z,99103.59
2023-03-24T07:32:20.416Z,99108.56
2023-03-24T07:37:21.766Z,99108.91
2023-03-24T07:42:23.133Z,99115.84
2023-03-24T07:47:24.582Z,99121.38
2023-03-24T07:52:25.950Z,99132.75
2023-03-24T07:57:27.380Z,99131.88
2023-03-24T08:02:28.833Z,99127.97
2023-03-24T08:07:30.164Z,99119.72
2023-03-24T08:12:31.846Z,99105.75
2023-03-24T08:17:33.792Z,99093.91
2023-03-24T08:22:37.677Z,99104.66
2023-03-24T08:27:40.115Z,99118.88
2023-03-24T08:32:56.374Z,99115.13
2023-03-24T08:38:01.662Z,99133.13
2023-03-24T08:43:08.500Z,99135.03
2023-03-24T08:48:10.492Z,99138.53
2023-03-24T08:53:12.383Z,99136.03
2023-03-24T08:58:20.910Z,99109.06
2023-03-24T09:03:22.818Z,99104.09
2023-03-24T09:08:25.256Z,99105.91
2023-03-24T09:13:26.580Z,99118.56
2023-03-24T09:18:29.041Z,99118.34
2023-03-24T09:23:31.537Z,99142.19
2023-03-24T09:28:33.095Z,99123.91
2023-03-24T09:33:34.931Z,99146.78
2023-03-24T09:38:36.390Z,99162.41
2023-03-24T09:43:44.446Z,99175.25
2023-03-24T09:48:55.037Z,99212.16
2023-03-24T09:54:18.092Z,99223.13
2023-03-24T09:59:40.001Z,99236.56
2023-03-24T10:04:41.637Z,99232.66
2023-03-24T10:09:46.268Z,99243.06
2023-03-24T10:14:57.777Z,99234.38
2023-03-24T10:20:25.681Z,99244.50
2023-03-24T10:25:43.180Z,99250.91
2023-03-24T10:30:48.328Z,99266.13
2023-03-24T10:36:02.576Z,99269.84
2023-03-24T10:41:04.383Z,99261.22
2023-03-24T10:46:06.392Z,99267.00
2023-03-24T10:51:17.986Z,99244.38
2023-03-24T10:56:41.723Z,99241.69
2023-03-24T11:01:43.206Z,99257.06
2023-03-24T11:07:02.634Z,99271.00
2023-03-24T11:12:04.357Z,99258.75
2023-03-24T11:17:16.812Z,99278.75
2023-03-24T11:22:18.560Z,99289.13
2023-03-24T11:27:20.267Z,99281.34
2023-03-24T11:32:27.827Z,99270.66
2023-03-24T11:37:34.708Z,99271.38
2023-03-24T11:42:57.691Z,99259.00
2023-03-24T11:48:01.139Z,99264.22
2023-03-24T11:53:15.972Z,99258.97
2023-03-24T11:58:36.904Z,99258.03
2023-03-24T12:04:20.754Z,99262.97
2023-03-24T12:09:53.954Z,99247.44
2023-03-24T12:15:28.152Z,99254.28
2023-03-24T12:20:44.928Z,99247.09
2023-03-24T12:26:05.100Z,99246.22
2023-03-24T12:31:38.821Z,99238.91
2023-03-24T12:36:54.281Z,99236.50
2023-03-24T12:42:15.740Z,99235.94
2023-03-24T12:47:36.094Z,99242.13
2023-03-24T12:53:08.222Z,99244.59
2023-03-24T12:58:20.733Z,99242.06
2023-03-24T13:03:30.350Z,99246.84
2023-03-24T13:08:32.930Z,99232.53
2023-03-24T13:13:40.828Z,99253.72
2023-03-24T13:19:00.390Z,99246.63
2023-03-24T13:24:15.383Z,99243.66
2023-03-24T13:29:48.377Z,99252.72
2023-03-24T13:35:00.246Z,99233.84
2023-03-24T13:40:07.812Z,99245.31
2023-03-24T13:45:27.089Z,99231.59
2023-03-24T13:50:32.276Z,99227.59
2023-03-24T13:55:38.226Z,99219.59
2023-03-24T14:01:06.349Z,99220.19
2023-03-24T14:06:09.687Z,99217.69
2023-03-24T14:11:38.444Z,99202.69
2023-03-24T14:16:44.305Z,99216.31
2023-03-24T14:21:52.550Z,99213.91
2023-03-24T14:26:54.096Z,99204.41
2023-03-24T14:32:17.296Z,99189.22
2023-03-24T14:37:22.175Z,99185.97
2023-03-24T14:42:32.362Z,99184.59
2023-03-24T14:47:38.001Z,99187.06
2023-03-24T14:52:51.070Z,99191.38
2023-03-24T14:57:56.314Z,99199.66
2023-03-24T15:03:41.276Z,99194.69
2023-03-24T15:08:54.291Z,99189.06
2023-03-24T15:13:57.481Z,99193.41
2023-03-24T15:19:02.501Z,99188.78
2023-03-24T15:24:27.089Z,99169.97
2023-03-24T15:29:28.453Z,99170.75
2023-03-24T15:34:47.246Z,99164.28
2023-03-24T15:39:59.164Z,99165.28
2023-03-24T15:45:21.050Z,99166.34
2023-03-24T15:50:35.492Z,99165.69
2023-03-24T15:55:37.932Z,99169.47
2023-03-24T16:00:42.362Z,99160.69
2023-03-24T16:05:48.680Z,99157.34
2023-03-24T16:11:07.069Z,99154.25
2023-03-24T16:16:24.180Z,99149.50
2023-03-24T16:21:28.261Z,99156.56
2023-03-24T16:26:32.360Z,99167.75
2023-03-24T16:31:35.520Z,99166.06
2023-03-24T16:36:37.104Z,99173.16
2023-03-24T16:41:38.505Z,99166.06
2023-03-24T16:46:41.081Z,99165.94
2023-03-24T16:51:43.204Z,99183.41
2023-03-24T16:56:44.854Z,99180.00
2023-03-24T17:01:47.710Z,99189.66
2023-03-24T17:06:55.124Z,99181.53
2023-03-24T17:11:58.485Z,99181.13
2023-03-24T17:17:02.791Z,99184.94
2023-03-24T17:22:06.840Z,99181.44
2023-03-24T17:27:26.103Z,99176.88
2023-03-24T17:32:32.261Z,99183.88
2023-03-24T17:37:33.661Z,99189.13
2023-03-24T17:42:35.456Z,99188.63
2023-03-24T17:47:36.847Z,99200.72
2023-03-24T17:52:48.168Z,99201.84
2023-03-24T17:57:49.590Z,99209.81
2023-03-24T18:02:51.125Z,99213.28
2023-03-24T18:07:52.678Z,99222.91
2023-03-24T18:12:54.565Z,99240.84
2023-03-24T18:17:56.162Z,99236.03
2023-03-24T18:22:57.998Z,99238.78
2023-03-24T18:27:59.453Z,99248.84
2023-03-24T18:33:01.214Z,99275.00
2023-03-24T18:38:02.711Z,99271.34
2023-03-24T18:43:04.267Z,99267.84
2023-03-24T18:48:06.314Z,99278.69
2023-03-24T18:53:07.754Z,99280.41
2023-03-24T18:58:15.139Z,99275.94
2023-03-24T19:03:17.291Z,99280.66
2023-03-24T19:08:22.504Z,99294.66
2023-03-24T19:13:23.993Z,99308.94
2023-03-24T19:18:25.868Z,99320.00
2023-03-24T19:23:28.318Z,99372.38
2023-03-24T19:28:32.108Z,99397.41
2023-03-24T19:33:33.495Z,99394.31
2023-03-24T19:38:36.030Z,99389.88
2023-03-24T19:43:37.844Z,99389.13
2023-03-24T19:48:39.264Z,99375.03
2023-03-24T19:53:40.873Z,99381.50
2023-03-24T19:58:42.231Z,99367.34
2023-03-24T20:03:43.846Z,99359.88
2023-03-24T20:08:45.440Z,99359.88
2023-03-24T20:13:46.768Z,99359.88
2023-03-24T20:18:48.238Z,99358.06
2023-03-24T20:23:50.376Z,99355.66
2023-03-24T20:28:51.917Z,99348.22
2023-03-24T20:33:53.282Z,99356.31
2023-03-24T20:38:59.088Z,99353.44
2023-03-24T20:44:00.723Z,99342.47
2023-03-24T20:49:02.145Z,99336.25
2023-03-24T20:54:05.573Z,99332.16
2023-03-24T20:59:07.306Z,99333.44
2023-03-24T21:04:10.003Z,99326.00
2023-03-24T21:09:11.642Z,99332.88
2023-03-24T21:14:12.973Z,99334.31
2023-03-24T21:19:14.543Z,99333.06
2023-03-24T21:24:17.113Z,99339.72
2023-03-24T21:29:18.628Z,99343.22
2023-03-24T21:34:19.984Z,99357.31
2023-03-24T21:39:21.699Z,99393.78
2023-03-24T21:44:23.275Z,99405.34
2023-03-24T21:49:24.649Z,99410.91
2023-03-24T21:54:26.750Z,99413.22
2023-03-24T21:59:28.567Z,99395.22
2023-03-24T22:04:29.886Z,99395.66
2023-03-24T22:09:31.196Z,99386.50
2023-03-24T22:14:32.509Z,99398.97
2023-03-24T22:19:33.975Z,99394.81
2023-03-24T22:24:35.497Z,99392.13
2023-03-24T22:29:37.246Z,99391.50
2023-03-24T22:34:38.569Z,99378.25
2023-03-24T22:39:39.890Z,99372.25
2023-03-24T22:44:41.905Z,99389.41
2023-03-24T22:49:43.298Z,99390.06
2023-03-24T22:54:44.680Z,99373.06
2023-03-24T22:59:46.091Z,99383.66
2023-03-24T23:04:48.248Z,99395.63
2023-03-24T23:09:49.907Z,99395.44
2023-03-24T23:14:54.196Z,99406.84
2023-03-24T23:19:55.719Z,99407.03
2023-03-24T23:25:01.936Z,99412.94
2023-03-24T23:30:06.983Z,99414.19
2023-03-24T23:35:09.256Z,99400.38
2023-03-24T23:40:12.867Z,99376.16
2023-03-24T23:45:19.194Z,99408.09
2023-03-24T23:50:21.069Z,99412.00
2023-03-24T23:55:22.691Z,99395.44
